sensor_id;sensor_type;location;lat;lon;timestamp;temperature;humidity
16283;DHT22;8249;48.708;9.030;2022-12-07T00:01:11;3.50;99.90
16283;DHT22;8249;48.708;9.030;2022-12-07T00:03:40;3.50;99.90
16283;DHT22;8249;48.708;9.030;2022-12-07T00:06:09;3.50;99.90
16283;DHT22;8249;48.708;9.030;2022-12-07T00:08:36;3.50;99.90
16283;DHT22;8249;48.708;9.030;2022-12-07T00:11:06;3.50;99.90
16283;DHT22;8249;48.708;9.030;2022-12-07T00:13:34;3.50;99.90
16283;DHT22;8249;48.708;9.030;2022-12-07T00:16:05;3.50;99.90
16283;DHT22;8249;48.708;9.030;2022-12-07T00:18:32;3.50;99.90
16283;DHT22;8249;48.708;9.030;2022-12-07T00:21:00;3.50;99.90
16283;DHT22;8249;48.708;9.030;2022-12-07T00:23:28;3.50;99.90
16283;DHT22;8249;48.708;9.030;2022-12-07T00:25:55;3.50;99.90
16283;DHT22;8249;48.708;9.030;2022-12-07T00:28:22;3.60;99.90
16283;DHT22;8249;48.708;9.030;2022-12-07T00:30:49;3.50;99.90
16283;DHT22;8249;48.708;9.030;2022-12-07T00:33:17;3.60;99.90
16283;DHT22;8249;48.708;9.030;2022-12-07T00:35:44;3.50;99.90
16283;DHT22;8249;48.708;9.030;2022-12-07T00:38:11;3.50;99.90
16283;DHT22;8249;48.708;9.030;2022-12-07T00:40:38;3.50;99.90
16283;DHT22;8249;48.708;9.030;2022-12-07T00:43:05;3.50;99.90
16283;DHT22;8249;48.708;9.030;2022-12-07T00:45:32;3.50;99.90
16283;DHT22;8249;48.708;9.030;2022-12-07T00:47:59;3.50;99.90
16283;DHT22;8249;48.708;9.030;2022-12-07T00:50:27;3.40;99.90
16283;DHT22;8249;48.708;9.030;2022-12-07T00:52:54;3.50;99.90
16283;DHT22;8249;48.708;9.030;2022-12-07T00:55:21;3.50;99.90
16283;DHT22;8249;48.708;9.030;2022-12-07T00:57:48;3.50;99.90
16283;DHT22;8249;48.708;9.030;2022-12-07T01:00:15;3.50;99.90
16283;DHT22;8249;48.708;9.030;2022-12-07T01:02:42;3.40;99.90
16283;DHT22;8249;48.708;9.030;2022-12-07T01:05:09;3.50;99.90
16283;DHT22;8249;48.708;9.030;2022-12-07T01:07:37;3.50;99.90
16283;DHT22;8249;48.708;9.030;2022-12-07T01:10:05;3.50;99.90
16283;DHT22;8249;48.708;9.030;2022-12-07T01:12:32;3.50;99.90
16283;DHT22;8249;48.708;9.030;2022-12-07T01:14:59;3.50;99.90
16283;DHT22;8249;48.708;9.030;2022-12-07T01:17:27;3.50;99.90
16283;DHT22;8249;48.708;9.030;2022-12-07T01:19:54;3.50;99.90
16283;DHT22;8249;48.708;9.030;2022-12-07T01:22:21;3.50;99.90
16283;DHT22;8249;48.708;9.030;2022-12-07T01:24:50;3.50;99.90
16283;DHT22;8249;48.708;9.030;2022-12-07T01:27:16;3.50;99.90
16283;DHT22;8249;48.708;9.030;2022-12-07T01:29:43;3.50;99.90
16283;DHT22;8249;48.708;9.030;2022-12-07T01:32:11;3.50;99.90
16283;DHT22;8249;48.708;9.030;2022-12-07T01:34:38;3.50;99.90
16283;DHT22;8249;48.708;9.030;2022-12-07T01:37:05;3.40;99.90
16283;DHT22;8249;48.708;9.030;2022-12-07T01:39:32;3.40;99.90
16283;DHT22;8249;48.708;9.030;2022-12-07T01:42:00;3.40;99.90
16283;DHT22;8249;48.708;9.030;2022-12-07T01:44:28;3.40;99.90
16283;DHT22;8249;48.708;9.030;2022-12-07T01:46:58;3.40;99.90
16283;DHT22;8249;48.708;9.030;2022-12-07T01:49:29;3.40;99.90
16283;DHT22;8249;48.708;9.030;2022-12-07T01:52:03;3.30;99.90
16283;DHT22;8249;48.708;9.030;2022-12-07T01:54:35;3.30;99.90
16283;DHT22;8249;48.708;9.030;2022-12-07T01:57:06;3.30;99.90
16283;DHT22;8249;48.708;9.030;2022-12-07T01:59:35;3.30;99.90
16283;DHT22;8249;48.708;9.030;2022-12-07T02:02:07;3.30;99.90
16283;DHT22;8249;48.708;9.030;2022-12-07T02:04:36;3.30;99.90
16283;DHT22;8249;48.708;9.030;2022-12-07T02:07:03;3.30;99.90
16283;DHT22;8249;48.708;9.030;2022-12-07T02:09:31;3.30;99.90
16283;DHT22;8249;48.708;9.030;2022-12-07T02:11:58;3.30;99.90
16283;DHT22;8249;48.708;9.030;2022-12-07T02:14:26;3.20;99.90
16283;DHT22;8249;48.708;9.030;2022-12-07T02:17:04;3.30;99.90
16283;DHT22;8249;48.708;9.030;2022-12-07T02:20:00;3.30;99.90
16283;DHT22;8249;48.708;9.030;2022-12-07T02:25:47;3.20;99.90
16283;DHT22;8249;48.708;9.030;2022-12-07T02:28:25;3.20;99.90
16283;DHT22;8249;48.708;9.030;2022-12-07T02:30:57;3.20;99.90
16283;DHT22;8249;48.708;9.030;2022-12-07T02:33:29;3.20;99.90
16283;DHT22;8249;48.708;9.030;2022-12-07T02:36:01;3.20;99.90
16283;DHT22;8249;48.708;9.030;2022-12-07T02:38:34;3.20;99.90
16283;DHT22;8249;48.708;9.030;2022-12-07T02:41:05;3.20;99.90
16283;DHT22;8249;48.708;9.030;2022-12-07T02:43:36;3.30;99.90
16283;DHT22;8249;48.708;9.030;2022-12-07T02:46:09;3.20;99.90
16283;DHT22;8249;48.708;9.030;2022-12-07T02:48:38;3.20;99.90
16283;DHT22;8249;48.708;9.030;2022-12-07T02:51:06;3.20;99.90
16283;DHT22;8249;48.708;9.030;2022-12-07T02:53:35;3.20;99.90
16283;DHT22;8249;48.708;9.030;2022-12-07T02:56:07;3.20;99.90
16283;DHT22;8249;48.708;9.030;2022-12-07T02:58:46;3.10;99.90
16283;DHT22;8249;48.708;9.030;2022-12-07T03:01:27;3.20;99.90
16283;DHT22;8249;48.708;9.030;2022-12-07T03:04:02;3.20;99.90
16283;DHT22;8249;48.708;9.030;2022-12-07T03:06:36;3.20;99.90
16283;DHT22;8249;48.708;9.030;2022-12-07T03:09:14;3.20;99.90
16283;DHT22;8249;48.708;9.030;2022-12-07T03:11:46;3.10;99.90
16283;DHT22;8249;48.708;9.030;2022-12-07T03:14:16;3.20;99.90
16283;DHT22;8249;48.708;9.030;2022-12-07T03:16:49;3.20;99.90
16283;DHT22;8249;48.708;9.030;2022-12-07T03:19:20;3.10;99.90
16283;DHT22;8249;48.708;9.030;2022-12-07T03:21:53;3.10;99.90
16283;DHT22;8249;48.708;9.030;2022-12-07T03:24:24;3.10;99.90
16283;DHT22;8249;48.708;9.030;2022-12-07T03:26:56;3.10;99.90
16283;DHT22;8249;48.708;9.030;2022-12-07T03:29:30;3.10;99.90
16283;DHT22;8249;48.708;9.030;2022-12-07T03:32:03;3.10;99.90
16283;DHT22;8249;48.708;9.030;2022-12-07T03:34:34;3.10;99.90
16283;DHT22;8249;48.708;9.030;2022-12-07T03:37:06;3.10;99.90
16283;DHT22;8249;48.708;9.030;2022-12-07T03:39:38;3.00;99.90
16283;DHT22;8249;48.708;9.030;2022-12-07T03:42:07;3.10;99.90
16283;DHT22;8249;48.708;9.030;2022-12-07T03:44:36;3.00;99.90
16283;DHT22;8249;48.708;9.030;2022-12-07T03:47:08;3.00;99.90
16283;DHT22;8249;48.708;9.030;2022-12-07T03:49:41;3.00;99.90
16283;DHT22;8249;48.708;9.030;2022-12-07T03:52:14;3.00;99.90
16283;DHT22;8249;48.708;9.030;2022-12-07T03:54:47;3.00;99.90
16283;DHT22;8249;48.708;9.030;2022-12-07T03:57:16;3.00;99.90
16283;DHT22;8249;48.708;9.030;2022-12-07T03:59:43;3.00;99.90
16283;DHT22;8249;48.708;9.030;2022-12-07T04:02:13;3.00;99.90
16283;DHT22;8249;48.708;9.030;2022-12-07T04:04:41;3.00;99.90
16283;DHT22;8249;48.708;9.030;2022-12-07T04:07:08;3.00;99.90
16283;DHT22;8249;48.708;9.030;2022-12-07T04:09:36;3.00;99.90
16283;DHT22;8249;48.708;9.030;2022-12-07T04:12:03;3.00;99.90
16283;DHT22;8249;48.708;9.030;2022-12-07T04:14:31;3.00;99.90
16283;DHT22;8249;48.708;9.030;2022-12-07T04:16:59;2.90;99.90
16283;DHT22;8249;48.708;9.030;2022-12-07T04:19:29;2.90;99.90
16283;DHT22;8249;48.708;9.030;2022-12-07T04:21:57;2.70;99.90
16283;DHT22;8249;48.708;9.030;2022-12-07T04:24:24;2.90;99.90
16283;DHT22;8249;48.708;9.030;2022-12-07T04:26:51;2.90;99.90
16283;DHT22;8249;48.708;9.030;2022-12-07T04:29:19;2.90;99.90
16283;DHT22;8249;48.708;9.030;2022-12-07T04:31:46;2.90;99.90
16283;DHT22;8249;48.708;9.030;2022-12-07T04:34:14;2.90;99.90
16283;DHT22;8249;48.708;9.030;2022-12-07T04:36:43;2.90;99.90
16283;DHT22;8249;48.708;9.030;2022-12-07T04:39:18;2.80;99.90
16283;DHT22;8249;48.708;9.030;2022-12-07T04:41:45;2.80;99.90
16283;DHT22;8249;48.708;9.030;2022-12-07T04:44:13;2.80;99.90
16283;DHT22;8249;48.708;9.030;2022-12-07T04:46:40;2.80;99.90
16283;DHT22;8249;48.708;9.030;2022-12-07T04:49:08;2.70;99.90
16283;DHT22;8249;48.708;9.030;2022-12-07T04:51:35;2.80;99.90
16283;DHT22;8249;48.708;9.030;2022-12-07T04:54:03;2.70;99.90
16283;DHT22;8249;48.708;9.030;2022-12-07T04:56:30;2.70;99.90
16283;DHT22;8249;48.708;9.030;2022-12-07T04:58:58;2.70;99.90
16283;DHT22;8249;48.708;9.030;2022-12-07T05:01:25;2.80;99.90
16283;DHT22;8249;48.708;9.030;2022-12-07T05:03:52;2.70;99.90
16283;DHT22;8249;48.708;9.030;2022-12-07T05:06:19;2.70;99.90
16283;DHT22;8249;48.708;9.030;2022-12-07T05:08:46;2.70;99.90
16283;DHT22;8249;48.708;9.030;2022-12-07T05:11:15;2.60;99.90
16283;DHT22;8249;48.708;9.030;2022-12-07T05:13:56;2.50;99.90
16283;DHT22;8249;48.708;9.030;2022-12-07T05:16:23;2.50;99.90
16283;DHT22;8249;48.708;9.030;2022-12-07T05:18:51;2.40;99.90
16283;DHT22;8249;48.708;9.030;2022-12-07T05:21:18;2.40;99.90
16283;DHT22;8249;48.708;9.030;2022-12-07T05:23:45;2.40;99.90
16283;DHT22;8249;48.708;9.030;2022-12-07T05:26:12;2.40;99.90
16283;DHT22;8249;48.708;9.030;2022-12-07T05:28:40;2.40;99.90
16283;DHT22;8249;48.708;9.030;2022-12-07T05:31:07;2.40;99.90
16283;DHT22;8249;48.708;9.030;2022-12-07T05:33:35;2.40;99.90
16283;DHT22;8249;48.708;9.030;2022-12-07T05:36:02;2.30;99.90
16283;DHT22;8249;48.708;9.030;2022-12-07T05:38:31;2.20;99.90
16283;DHT22;8249;48.708;9.030;2022-12-07T05:41:01;2.10;99.90
16283;DHT22;8249;48.708;9.030;2022-12-07T05:43:28;2.00;99.90
16283;DHT22;8249;48.708;9.030;2022-12-07T05:45:57;1.90;99.90
16283;DHT22;8249;48.708;9.030;2022-12-07T05:48:24;1.80;99.90
16283;DHT22;8249;48.708;9.030;2022-12-07T05:50:52;1.70;99.90
16283;DHT22;8249;48.708;9.030;2022-12-07T05:53:19;1.60;99.90
16283;DHT22;8249;48.708;9.030;2022-12-07T05:55:46;1.50;99.90
16283;DHT22;8249;48.708;9.030;2022-12-07T05:58:13;1.40;99.90
16283;DHT22;8249;48.708;9.030;2022-12-07T06:00:59;1.40;99.90
16283;DHT22;8249;48.708;9.030;2022-12-07T06:03:26;1.30;99.90
16283;DHT22;8249;48.708;9.030;2022-12-07T06:05:53;1.20;99.90
16283;DHT22;8249;48.708;9.030;2022-12-07T06:08:20;1.20;99.90
16283;DHT22;8249;48.708;9.030;2022-12-07T06:10:47;1.30;99.90
16283;DHT22;8249;48.708;9.030;2022-12-07T06:13:36;1.50;99.90
16283;DHT22;8249;48.708;9.030;2022-12-07T06:16:04;1.60;99.90
16283;DHT22;8249;48.708;9.030;2022-12-07T06:18:31;1.80;99.90
16283;DHT22;8249;48.708;9.030;2022-12-07T06:20:58;1.90;99.90
16283;DHT22;8249;48.708;9.030;2022-12-07T06:23:25;2.00;99.90
16283;DHT22;8249;48.708;9.030;2022-12-07T06:25:52;2.10;99.90
16283;DHT22;8249;48.708;9.030;2022-12-07T06:28:19;2.10;99.90
16283;DHT22;8249;48.708;9.030;2022-12-07T06:30:46;2.20;99.90
16283;DHT22;8249;48.708;9.030;2022-12-07T06:33:14;2.20;99.90
16283;DHT22;8249;48.708;9.030;2022-12-07T06:35:41;2.20;99.90
16283;DHT22;8249;48.708;9.030;2022-12-07T06:38:08;2.20;99.90
16283;DHT22;8249;48.708;9.030;2022-12-07T06:40:35;2.10;99.90
16283;DHT22;8249;48.708;9.030;2022-12-07T06:43:02;2.20;99.90
16283;DHT22;8249;48.708;9.030;2022-12-07T06:45:30;2.10;99.90
16283;DHT22;8249;48.708;9.030;2022-12-07T06:47:56;2.10;99.90
16283;DHT22;8249;48.708;9.030;2022-12-07T06:50:25;2.10;99.90
16283;DHT22;8249;48.708;9.030;2022-12-07T06:52:52;2.10;99.90
16283;DHT22;8249;48.708;9.030;2022-12-07T06:55:19;2.20;99.90
16283;DHT22;8249;48.708;9.030;2022-12-07T06:57:46;2.20;99.90
16283;DHT22;8249;48.708;9.030;2022-12-07T07:00:14;2.10;99.90
16283;DHT22;8249;48.708;9.030;2022-12-07T07:02:41;2.10;99.90
16283;DHT22;8249;48.708;9.030;2022-12-07T07:05:08;2.20;99.90
16283;DHT22;8249;48.708;9.030;2022-12-07T07:07:37;2.10;99.90
16283;DHT22;8249;48.708;9.030;2022-12-07T07:10:05;2.20;99.90
16283;DHT22;8249;48.708;9.030;2022-12-07T07:12:33;2.20;99.90
16283;DHT22;8249;48.708;9.030;2022-12-07T07:14:59;2.20;99.90
16283;DHT22;8249;48.708;9.030;2022-12-07T07:17:26;2.10;99.90
16283;DHT22;8249;48.708;9.030;2022-12-07T07:19:53;2.20;99.90
16283;DHT22;8249;48.708;9.030;2022-12-07T07:22:20;2.20;99.90
16283;DHT22;8249;48.708;9.030;2022-12-07T07:24:49;2.20;99.90
16283;DHT22;8249;48.708;9.030;2022-12-07T07:27:16;2.20;99.90
16283;DHT22;8249;48.708;9.030;2022-12-07T07:29:43;2.20;99.90
16283;DHT22;8249;48.708;9.030;2022-12-07T07:32:10;2.30;99.90
16283;DHT22;8249;48.708;9.030;2022-12-07T07:34:37;2.20;99.90
16283;DHT22;8249;48.708;9.030;2022-12-07T07:37:04;2.20;99.90
16283;DHT22;8249;48.708;9.030;2022-12-07T07:39:31;2.30;99.90
16283;DHT22;8249;48.708;9.030;2022-12-07T07:41:59;2.20;99.90
16283;DHT22;8249;48.708;9.030;2022-12-07T07:44:27;2.50;99.90
16283;DHT22;8249;48.708;9.030;2022-12-07T07:46:54;2.30;99.90
16283;DHT22;8249;48.708;9.030;2022-12-07T07:49:21;2.40;99.90
16283;DHT22;8249;48.708;9.030;2022-12-07T07:51:48;2.40;99.90
16283;DHT22;8249;48.708;9.030;2022-12-07T07:54:15;2.40;99.90
16283;DHT22;8249;48.708;9.030;2022-12-07T07:56:42;2.50;99.90
16283;DHT22;8249;48.708;9.030;2022-12-07T07:59:10;2.50;99.90
16283;DHT22;8249;48.708;9.030;2022-12-07T08:01:37;2.50;99.90
16283;DHT22;8249;48.708;9.030;2022-12-07T08:04:04;2.60;99.90
16283;DHT22;8249;48.708;9.030;2022-12-07T08:06:31;2.60;99.90
16283;DHT22;8249;48.708;9.030;2022-12-07T08:08:58;2.70;99.90
16283;DHT22;8249;48.708;9.030;2022-12-07T08:11:25;2.70;99.90
16283;DHT22;8249;48.708;9.030;2022-12-07T08:13:52;2.70;99.90
16283;DHT22;8249;48.708;9.030;2022-12-07T08:16:21;2.80;99.90
16283;DHT22;8249;48.708;9.030;2022-12-07T08:18:48;2.80;99.90
16283;DHT22;8249;48.708;9.030;2022-12-07T08:21:15;2.90;99.90
16283;DHT22;8249;48.708;9.030;2022-12-07T08:23:43;3.00;99.90
16283;DHT22;8249;48.708;9.030;2022-12-07T08:26:12;3.10;99.90
16283;DHT22;8249;48.708;9.030;2022-12-07T08:28:40;3.20;99.90
16283;DHT22;8249;48.708;9.030;2022-12-07T08:31:10;3.30;99.90
16283;DHT22;8249;48.708;9.030;2022-12-07T08:33:39;3.30;99.90
16283;DHT22;8249;48.708;9.030;2022-12-07T08:36:09;3.20;99.90
16283;DHT22;8249;48.708;9.030;2022-12-07T08:38:37;3.30;99.90
16283;DHT22;8249;48.708;9.030;2022-12-07T08:41:05;3.30;99.90
16283;DHT22;8249;48.708;9.030;2022-12-07T08:43:32;3.30;99.90
16283;DHT22;8249;48.708;9.030;2022-12-07T08:46:08;3.30;99.90
16283;DHT22;8249;48.708;9.030;2022-12-07T08:48:41;3.40;99.90
16283;DHT22;8249;48.708;9.030;2022-12-07T08:51:09;3.50;99.90
16283;DHT22;8249;48.708;9.030;2022-12-07T08:53:38;3.50;99.90
16283;DHT22;8249;48.708;9.030;2022-12-07T08:56:07;3.50;99.90
16283;DHT22;8249;48.708;9.030;2022-12-07T08:58:35;3.50;99.90
16283;DHT22;8249;48.708;9.030;2022-12-07T09:01:03;3.60;99.90
16283;DHT22;8249;48.708;9.030;2022-12-07T09:03:30;3.60;99.90
16283;DHT22;8249;48.708;9.030;2022-12-07T09:05:59;3.70;99.90
16283;DHT22;8249;48.708;9.030;2022-12-07T09:08:29;3.80;99.90
16283;DHT22;8249;48.708;9.030;2022-12-07T09:10:57;3.80;99.90
16283;DHT22;8249;48.708;9.030;2022-12-07T09:13:24;3.80;99.90
16283;DHT22;8249;48.708;9.030;2022-12-07T09:15:51;3.90;99.90
16283;DHT22;8249;48.708;9.030;2022-12-07T09:18:18;4.00;99.90
16283;DHT22;8249;48.708;9.030;2022-12-07T09:20:45;4.00;99.90
16283;DHT22;8249;48.708;9.030;2022-12-07T09:23:14;4.10;99.90
16283;DHT22;8249;48.708;9.030;2022-12-07T09:25:41;4.10;99.90
16283;DHT22;8249;48.708;9.030;2022-12-07T09:28:08;4.10;99.90
16283;DHT22;8249;48.708;9.030;2022-12-07T09:30:35;4.10;99.90
16283;DHT22;8249;48.708;9.030;2022-12-07T09:33:02;4.10;99.90
16283;DHT22;8249;48.708;9.030;2022-12-07T09:35:29;4.10;99.90
16283;DHT22;8249;48.708;9.030;2022-12-07T09:37:56;4.20;99.90
16283;DHT22;8249;48.708;9.030;2022-12-07T09:40:24;4.20;99.90
16283;DHT22;8249;48.708;9.030;2022-12-07T09:42:53;4.30;99.90
16283;DHT22;8249;48.708;9.030;2022-12-07T09:45:23;4.30;99.90
16283;DHT22;8249;48.708;9.030;2022-12-07T09:47:50;4.40;99.90
16283;DHT22;8249;48.708;9.030;2022-12-07T09:50:21;4.50;99.90
16283;DHT22;8249;48.708;9.030;2022-12-07T09:52:49;4.50;99.90
16283;DHT22;8249;48.708;9.030;2022-12-07T09:55:19;4.70;99.90
16283;DHT22;8249;48.708;9.030;2022-12-07T09:57:49;4.70;99.90
16283;DHT22;8249;48.708;9.030;2022-12-07T10:00:19;4.60;99.90
16283;DHT22;8249;48.708;9.030;2022-12-07T10:02:50;4.60;99.90
16283;DHT22;8249;48.708;9.030;2022-12-07T10:05:22;4.70;99.90
16283;DHT22;8249;48.708;9.030;2022-12-07T10:07:50;4.80;99.90
16283;DHT22;8249;48.708;9.030;2022-12-07T10:10:21;5.00;99.90
16283;DHT22;8249;48.708;9.030;2022-12-07T10:12:57;5.20;99.90
16283;DHT22;8249;48.708;9.030;2022-12-07T10:15:41;5.30;99.90
16283;DHT22;8249;48.708;9.030;2022-12-07T10:18:18;5.30;99.90
16283;DHT22;8249;48.708;9.030;2022-12-07T10:20:46;5.40;99.90
16283;DHT22;8249;48.708;9.030;2022-12-07T10:23:15;5.50;99.90
16283;DHT22;8249;48.708;9.030;2022-12-07T10:25:42;5.40;99.90
16283;DHT22;8249;48.708;9.030;2022-12-07T10:28:14;5.40;99.90
16283;DHT22;8249;48.708;9.030;2022-12-07T10:30:54;5.30;99.90
16283;DHT22;8249;48.708;9.030;2022-12-07T10:33:35;5.20;99.90
16283;DHT22;8249;48.708;9.030;2022-12-07T10:36:18;5.20;99.90
16283;DHT22;8249;48.708;9.030;2022-12-07T10:38:47;5.20;99.90
16283;DHT22;8249;48.708;9.030;2022-12-07T10:41:15;5.20;99.90
16283;DHT22;8249;48.708;9.030;2022-12-07T10:43:54;5.20;99.90
16283;DHT22;8249;48.708;9.030;2022-12-07T10:49:46;5.20;99.90
16283;DHT22;8249;48.708;9.030;2022-12-07T10:52:24;5.10;99.90
16283;DHT22;8249;48.708;9.030;2022-12-07T10:55:06;5.10;99.90
16283;DHT22;8249;48.708;9.030;2022-12-07T10:57:43;5.10;99.90
16283;DHT22;8249;48.708;9.030;2022-12-07T11:00:17;5.20;99.90
16283;DHT22;8249;48.708;9.030;2022-12-07T11:05:53;5.40;99.90
16283;DHT22;8249;48.708;9.030;2022-12-07T11:08:44;5.50;99.90
16283;DHT22;8249;48.708;9.030;2022-12-07T11:11:19;5.50;99.90
16283;DHT22;8249;48.708;9.030;2022-12-07T11:13:52;5.50;99.90
16283;DHT22;8249;48.708;9.030;2022-12-07T11:16:34;5.50;99.90
16283;DHT22;8249;48.708;9.030;2022-12-07T11:19:34;5.30;99.90
16283;DHT22;8249;48.708;9.030;2022-12-07T11:22:13;5.30;99.90
16283;DHT22;8249;48.708;9.030;2022-12-07T11:24:46;5.20;99.90
16283;DHT22;8249;48.708;9.030;2022-12-07T11:27:23;5.30;99.90
16283;DHT22;8249;48.708;9.030;2022-12-07T11:30:03;5.20;99.90
16283;DHT22;8249;48.708;9.030;2022-12-07T11:35:34;5.10;99.90
16283;DHT22;8249;48.708;9.030;2022-12-07T11:38:10;5.10;99.90
16283;DHT22;8249;48.708;9.030;2022-12-07T11:40:39;5.10;99.90
16283;DHT22;8249;48.708;9.030;2022-12-07T11:43:13;5.10;99.90
16283;DHT22;8249;48.708;9.030;2022-12-07T11:45:43;5.10;99.90
16283;DHT22;8249;48.708;9.030;2022-12-07T11:48:15;5.10;99.90
16283;DHT22;8249;48.708;9.030;2022-12-07T11:50:48;5.10;99.90
16283;DHT22;8249;48.708;9.030;2022-12-07T11:53:19;5.00;99.90
16283;DHT22;8249;48.708;9.030;2022-12-07T11:55:56;5.00;99.90
16283;DHT22;8249;48.708;9.030;2022-12-07T11:58:38;5.10;99.90
16283;DHT22;8249;48.708;9.030;2022-12-07T12:01:28;5.20;99.90
16283;DHT22;8249;48.708;9.030;2022-12-07T12:04:06;5.30;99.90
16283;DHT22;8249;48.708;9.030;2022-12-07T12:06:33;5.30;99.90
16283;DHT22;8249;48.708;9.030;2022-12-07T12:09:05;5.20;99.90
16283;DHT22;8249;48.708;9.030;2022-12-07T12:11:49;5.10;99.90
16283;DHT22;8249;48.708;9.030;2022-12-07T12:14:30;5.00;99.90
16283;DHT22;8249;48.708;9.030;2022-12-07T12:17:23;5.00;99.90
16283;DHT22;8249;48.708;9.030;2022-12-07T12:20:04;5.00;99.90
16283;DHT22;8249;48.708;9.030;2022-12-07T12:22:36;5.00;99.90
16283;DHT22;8249;48.708;9.030;2022-12-07T12:25:05;5.00;99.90
16283;DHT22;8249;48.708;9.030;2022-12-07T12:27:37;5.00;99.90
16283;DHT22;8249;48.708;9.030;2022-12-07T12:30:23;4.90;99.90
16283;DHT22;8249;48.708;9.030;2022-12-07T12:32:51;4.90;99.90
16283;DHT22;8249;48.708;9.030;2022-12-07T12:35:30;5.00;99.90
16283;DHT22;8249;48.708;9.030;2022-12-07T12:38:29;5.00;99.90
16283;DHT22;8249;48.708;9.030;2022-12-07T12:40:57;5.00;99.90
16283;DHT22;8249;48.708;9.030;2022-12-07T12:43:57;5.00;99.90
16283;DHT22;8249;48.708;9.030;2022-12-07T12:46:52;5.00;99.90
16283;DHT22;8249;48.708;9.030;2022-12-07T12:49:43;5.00;99.90
16283;DHT22;8249;48.708;9.030;2022-12-07T12:55:52;5.00;99.90
16283;DHT22;8249;48.708;9.030;2022-12-07T12:58:42;4.90;99.90
16283;DHT22;8249;48.708;9.030;2022-12-07T13:01:44;5.00;99.90
16283;DHT22;8249;48.708;9.030;2022-12-07T13:04:40;5.10;99.90
16283;DHT22;8249;48.708;9.030;2022-12-07T13:07:49;5.00;99.90
16283;DHT22;8249;48.708;9.030;2022-12-07T13:10:40;4.90;99.90
16283;DHT22;8249;48.708;9.030;2022-12-07T13:13:32;4.90;99.90
16283;DHT22;8249;48.708;9.030;2022-12-07T13:22:50;4.90;99.90
16283;DHT22;8249;48.708;9.030;2022-12-07T13:25:34;5.00;99.90
16283;DHT22;8249;48.708;9.030;2022-12-07T13:28:13;5.00;99.90
16283;DHT22;8249;48.708;9.030;2022-12-07T13:30:47;5.00;99.90
16283;DHT22;8249;48.708;9.030;2022-12-07T13:33:17;5.00;99.90
16283;DHT22;8249;48.708;9.030;2022-12-07T13:35:45;5.00;99.90
16283;DHT22;8249;48.708;9.030;2022-12-07T13:38:24;5.10;99.90
16283;DHT22;8249;48.708;9.030;2022-12-07T13:41:03;5.20;99.90
16283;DHT22;8249;48.708;9.030;2022-12-07T13:43:30;5.20;99.90
16283;DHT22;8249;48.708;9.030;2022-12-07T13:46:11;5.30;99.90
16283;DHT22;8249;48.708;9.030;2022-12-07T13:48:45;5.30;99.90
16283;DHT22;8249;48.708;9.030;2022-12-07T13:51:21;5.30;99.90
16283;DHT22;8249;48.708;9.030;2022-12-07T13:53:50;5.40;99.90
16283;DHT22;8249;48.708;9.030;2022-12-07T13:56:20;5.40;99.90
16283;DHT22;8249;48.708;9.030;2022-12-07T13:58:47;5.40;99.90
16283;DHT22;8249;48.708;9.030;2022-12-07T14:01:19;5.40;99.90
16283;DHT22;8249;48.708;9.030;2022-12-07T14:03:46;5.40;99.90
16283;DHT22;8249;48.708;9.030;2022-12-07T14:06:21;5.40;99.90
16283;DHT22;8249;48.708;9.030;2022-12-07T14:09:05;5.30;99.90
16283;DHT22;8249;48.708;9.030;2022-12-07T14:11:32;5.30;99.90
16283;DHT22;8249;48.708;9.030;2022-12-07T14:14:01;5.20;99.90
16283;DHT22;8249;48.708;9.030;2022-12-07T14:16:31;5.20;99.90
16283;DHT22;8249;48.708;9.030;2022-12-07T14:19:03;5.20;99.90
16283;DHT22;8249;48.708;9.030;2022-12-07T14:21:32;5.00;99.90
16283;DHT22;8249;48.708;9.030;2022-12-07T14:24:10;5.00;99.90
16283;DHT22;8249;48.708;9.030;2022-12-07T14:26:38;5.00;99.90
16283;DHT22;8249;48.708;9.030;2022-12-07T14:29:30;5.00;99.90
16283;DHT22;8249;48.708;9.030;2022-12-07T14:32:16;4.70;99.90
16283;DHT22;8249;48.708;9.030;2022-12-07T14:34:53;4.80;99.90
16283;DHT22;8249;48.708;9.030;2022-12-07T14:37:21;4.90;99.90
16283;DHT22;8249;48.708;9.030;2022-12-07T14:39:48;4.70;99.90
16283;DHT22;8249;48.708;9.030;2022-12-07T14:42:18;4.80;99.90
16283;DHT22;8249;48.708;9.030;2022-12-07T14:44:45;4.70;99.90
16283;DHT22;8249;48.708;9.030;2022-12-07T14:47:13;4.60;99.90
16283;DHT22;8249;48.708;9.030;2022-12-07T14:49:41;4.60;99.90
16283;DHT22;8249;48.708;9.030;2022-12-07T14:52:14;4.50;99.90
16283;DHT22;8249;48.708;9.030;2022-12-07T14:54:42;4.50;99.90
16283;DHT22;8249;48.708;9.030;2022-12-07T14:57:10;4.50;99.90
16283;DHT22;8249;48.708;9.030;2022-12-07T14:59:37;4.50;99.90
16283;DHT22;8249;48.708;9.030;2022-12-07T15:02:05;4.50;99.90
16283;DHT22;8249;48.708;9.030;2022-12-07T15:04:34;4.40;99.90
16283;DHT22;8249;48.708;9.030;2022-12-07T15:07:03;4.40;99.90
16283;DHT22;8249;48.708;9.030;2022-12-07T15:09:30;4.40;99.90
16283;DHT22;8249;48.708;9.030;2022-12-07T15:11:57;4.30;99.90
16283;DHT22;8249;48.708;9.030;2022-12-07T15:14:24;4.30;99.90
16283;DHT22;8249;48.708;9.030;2022-12-07T15:16:51;4.30;99.90
16283;DHT22;8249;48.708;9.030;2022-12-07T15:19:20;4.40;99.90
16283;DHT22;8249;48.708;9.030;2022-12-07T15:21:49;4.30;99.90
16283;DHT22;8249;48.708;9.030;2022-12-07T15:24:16;4.30;99.90
16283;DHT22;8249;48.708;9.030;2022-12-07T15:26:44;4.30;99.90
16283;DHT22;8249;48.708;9.030;2022-12-07T15:29:11;4.30;99.90
16283;DHT22;8249;48.708;9.030;2022-12-07T15:31:40;4.30;99.90
16283;DHT22;8249;48.708;9.030;2022-12-07T15:34:07;4.30;99.90
16283;DHT22;8249;48.708;9.030;2022-12-07T15:36:35;4.30;99.90
16283;DHT22;8249;48.708;9.030;2022-12-07T15:39:03;4.30;99.90
16283;DHT22;8249;48.708;9.030;2022-12-07T15:41:30;4.20;99.90
16283;DHT22;8249;48.708;9.030;2022-12-07T15:43:57;4.20;99.90
16283;DHT22;8249;48.708;9.030;2022-12-07T15:46:42;4.20;99.90
16283;DHT22;8249;48.708;9.030;2022-12-07T15:49:12;4.10;99.90
16283;DHT22;8249;48.708;9.030;2022-12-07T15:51:40;4.10;99.90
16283;DHT22;8249;48.708;9.030;2022-12-07T15:54:11;4.10;99.90
16283;DHT22;8249;48.708;9.030;2022-12-07T15:56:39;4.10;99.90
16283;DHT22;8249;48.708;9.030;2022-12-07T15:59:06;4.10;99.90
16283;DHT22;8249;48.708;9.030;2022-12-07T16:01:33;4.00;99.90
16283;DHT22;8249;48.708;9.030;2022-12-07T16:04:00;4.00;99.90
16283;DHT22;8249;48.708;9.030;2022-12-07T16:06:27;3.90;99.90
16283;DHT22;8249;48.708;9.030;2022-12-07T16:08:54;3.90;99.90
16283;DHT22;8249;48.708;9.030;2022-12-07T16:11:23;3.90;99.90
16283;DHT22;8249;48.708;9.030;2022-12-07T16:13:50;3.80;99.90
16283;DHT22;8249;48.708;9.030;2022-12-07T16:16:18;3.70;99.90
16283;DHT22;8249;48.708;9.030;2022-12-07T16:18:47;3.70;99.90
16283;DHT22;8249;48.708;9.030;2022-12-07T16:21:15;3.70;99.90
16283;DHT22;8249;48.708;9.030;2022-12-07T16:23:42;3.60;99.90
16283;DHT22;8249;48.708;9.030;2022-12-07T16:26:12;3.60;99.90
16283;DHT22;8249;48.708;9.030;2022-12-07T16:28:40;3.50;99.90
16283;DHT22;8249;48.708;9.030;2022-12-07T16:31:09;3.50;99.90
16283;DHT22;8249;48.708;9.030;2022-12-07T16:33:38;3.40;99.90
16283;DHT22;8249;48.708;9.030;2022-12-07T16:36:07;3.40;99.90
16283;DHT22;8249;48.708;9.030;2022-12-07T16:38:35;3.30;99.90
16283;DHT22;8249;48.708;9.030;2022-12-07T16:41:03;3.30;99.90
16283;DHT22;8249;48.708;9.030;2022-12-07T16:43:30;3.30;99.90
16283;DHT22;8249;48.708;9.030;2022-12-07T16:45:59;3.30;99.90
16283;DHT22;8249;48.708;9.030;2022-12-07T16:48:26;3.30;99.90